sensor_id;sensor_type;location;lat;lon;timestamp;temperature;humidity
67899;DHT22;54699;51.796;10.956;2022-09-21T00:01:11;21.50;52.50
67899;DHT22;54699;51.796;10.956;2022-09-21T00:03:40;21.50;52.60
67899;DHT22;54699;51.796;10.956;2022-09-21T00:06:08;21.50;52.60
67899;DHT22;54699;51.796;10.956;2022-09-21T00:08:36;21.50;52.50
67899;DHT22;54699;51.796;10.956;2022-09-21T00:11:03;21.50;52.60
67899;DHT22;54699;51.796;10.956;2022-09-21T00:13:30;21.50;52.60
67899;DHT22;54699;51.796;10.956;2022-09-21T00:16:00;21.50;52.60
67899;DHT22;54699;51.796;10.956;2022-09-21T00:18:30;21.50;52.80
67899;DHT22;54699;51.796;10.956;2022-09-21T00:20:57;21.50;52.70
67899;DHT22;54699;51.796;10.956;2022-09-21T00:23:23;21.50;52.60
67899;DHT22;54699;51.796;10.956;2022-09-21T00:25:50;21.50;52.70
67899;DHT22;54699;51.796;10.956;2022-09-21T00:28:17;21.40;52.70
67899;DHT22;54699;51.796;10.956;2022-09-21T00:30:44;21.40;52.70
67899;DHT22;54699;51.796;10.956;2022-09-21T00:33:17;21.40;52.80
67899;DHT22;54699;51.796;10.956;2022-09-21T00:35:43;21.40;52.80
67899;DHT22;54699;51.796;10.956;2022-09-21T00:38:10;21.40;52.80
67899;DHT22;54699;51.796;10.956;2022-09-21T00:40:37;21.40;52.80
67899;DHT22;54699;51.796;10.956;2022-09-21T00:43:10;21.40;52.90
67899;DHT22;54699;51.796;10.956;2022-09-21T00:45:38;21.40;52.90
67899;DHT22;54699;51.796;10.956;2022-09-21T00:48:05;21.40;52.80
67899;DHT22;54699;51.796;10.956;2022-09-21T00:50:33;21.40;53.00
67899;DHT22;54699;51.796;10.956;2022-09-21T00:53:00;21.40;53.00
67899;DHT22;54699;51.796;10.956;2022-09-21T00:55:30;21.40;52.80
67899;DHT22;54699;51.796;10.956;2022-09-21T00:58:02;21.40;52.90
67899;DHT22;54699;51.796;10.956;2022-09-21T01:00:32;21.40;53.00
67899;DHT22;54699;51.796;10.956;2022-09-21T01:02:59;21.40;53.00
67899;DHT22;54699;51.796;10.956;2022-09-21T01:05:26;21.40;53.00
67899;DHT22;54699;51.796;10.956;2022-09-21T01:07:54;21.40;53.00
67899;DHT22;54699;51.796;10.956;2022-09-21T01:10:26;21.40;53.00
67899;DHT22;54699;51.796;10.956;2022-09-21T01:13:02;21.30;52.90
67899;DHT22;54699;51.796;10.956;2022-09-21T01:15:38;21.40;53.10
67899;DHT22;54699;51.796;10.956;2022-09-21T01:18:11;21.30;53.00
67899;DHT22;54699;51.796;10.956;2022-09-21T01:20:55;21.30;53.10
67899;DHT22;54699;51.796;10.956;2022-09-21T01:26:50;21.30;53.10
67899;DHT22;54699;51.796;10.956;2022-09-21T01:29:35;21.30;53.20
67899;DHT22;54699;51.796;10.956;2022-09-21T01:32:10;21.30;53.20
67899;DHT22;54699;51.796;10.956;2022-09-21T01:34:42;21.30;53.30
67899;DHT22;54699;51.796;10.956;2022-09-21T01:37:15;21.30;53.20
67899;DHT22;54699;51.796;10.956;2022-09-21T01:39:46;21.30;53.20
67899;DHT22;54699;51.796;10.956;2022-09-21T01:42:16;21.30;53.30
67899;DHT22;54699;51.796;10.956;2022-09-21T01:44:46;21.30;53.20
67899;DHT22;54699;51.796;10.956;2022-09-21T01:47:14;21.30;53.20
67899;DHT22;54699;51.796;10.956;2022-09-21T01:49:44;21.30;53.20
67899;DHT22;54699;51.796;10.956;2022-09-21T01:52:15;21.30;53.30
67899;DHT22;54699;51.796;10.956;2022-09-21T01:54:46;21.30;53.30
67899;DHT22;54699;51.796;10.956;2022-09-21T01:57:19;21.30;53.30
67899;DHT22;54699;51.796;10.956;2022-09-21T01:59:53;21.30;53.30
67899;DHT22;54699;51.796;10.956;2022-09-21T02:02:22;21.30;53.40
67899;DHT22;54699;51.796;10.956;2022-09-21T02:04:52;21.30;53.30
67899;DHT22;54699;51.796;10.956;2022-09-21T02:07:19;21.30;53.30
67899;DHT22;54699;51.796;10.956;2022-09-21T02:09:46;21.30;53.40
67899;DHT22;54699;51.796;10.956;2022-09-21T02:12:13;21.30;53.40
67899;DHT22;54699;51.796;10.956;2022-09-21T02:14:40;21.20;53.40
67899;DHT22;54699;51.796;10.956;2022-09-21T02:17:13;21.20;53.30
67899;DHT22;54699;51.796;10.956;2022-09-21T02:19:52;21.20;53.30
67899;DHT22;54699;51.796;10.956;2022-09-21T02:22:26;21.20;53.50
67899;DHT22;54699;51.796;10.956;2022-09-21T02:25:02;21.20;53.50
67899;DHT22;54699;51.796;10.956;2022-09-21T02:27:33;21.20;53.40
67899;DHT22;54699;51.796;10.956;2022-09-21T02:30:05;21.20;53.40
67899;DHT22;54699;51.796;10.956;2022-09-21T02:32:37;21.20;53.50
67899;DHT22;54699;51.796;10.956;2022-09-21T02:35:18;21.20;53.50
67899;DHT22;54699;51.796;10.956;2022-09-21T02:37:53;21.20;53.50
67899;DHT22;54699;51.796;10.956;2022-09-21T02:40:29;21.20;53.50
67899;DHT22;54699;51.796;10.956;2022-09-21T02:43:00;21.20;53.50
67899;DHT22;54699;51.796;10.956;2022-09-21T02:45:31;21.20;53.50
67899;DHT22;54699;51.796;10.956;2022-09-21T02:48:07;21.20;53.50
67899;DHT22;54699;51.796;10.956;2022-09-21T02:50:41;21.20;53.50
67899;DHT22;54699;51.796;10.956;2022-09-21T02:53:11;21.20;53.50
67899;DHT22;54699;51.796;10.956;2022-09-21T02:55:41;21.20;53.50
67899;DHT22;54699;51.796;10.956;2022-09-21T02:58:11;21.20;53.50
67899;DHT22;54699;51.796;10.956;2022-09-21T03:00:42;21.20;53.50
67899;DHT22;54699;51.796;10.956;2022-09-21T03:03:17;21.20;53.50
67899;DHT22;54699;51.796;10.956;2022-09-21T03:05:46;21.10;53.30
67899;DHT22;54699;51.796;10.956;2022-09-21T03:08:14;21.10;53.30
67899;DHT22;54699;51.796;10.956;2022-09-21T03:10:41;21.10;53.30
67899;DHT22;54699;51.796;10.956;2022-09-21T03:13:07;21.10;53.30
67899;DHT22;54699;51.796;10.956;2022-09-21T03:15:34;21.10;53.10
67899;DHT22;54699;51.796;10.956;2022-09-21T03:18:01;21.10;53.00
67899;DHT22;54699;51.796;10.956;2022-09-21T03:20:30;21.10;53.10
67899;DHT22;54699;51.796;10.956;2022-09-21T03:22:57;21.10;53.10
67899;DHT22;54699;51.796;10.956;2022-09-21T03:25:24;21.10;53.00
67899;DHT22;54699;51.796;10.956;2022-09-21T03:27:52;21.10;52.90
67899;DHT22;54699;51.796;10.956;2022-09-21T03:30:18;21.10;52.90
67899;DHT22;54699;51.796;10.956;2022-09-21T03:32:47;21.10;53.00
67899;DHT22;54699;51.796;10.956;2022-09-21T03:35:14;21.10;52.90
67899;DHT22;54699;51.796;10.956;2022-09-21T03:37:42;21.10;53.00
67899;DHT22;54699;51.796;10.956;2022-09-21T03:40:10;21.10;52.90
67899;DHT22;54699;51.796;10.956;2022-09-21T03:42:37;21.10;52.80
67899;DHT22;54699;51.796;10.956;2022-09-21T03:45:05;21.10;52.80
67899;DHT22;54699;51.796;10.956;2022-09-21T03:47:33;21.10;53.00
67899;DHT22;54699;51.796;10.956;2022-09-21T03:49:59;21.10;52.90
67899;DHT22;54699;51.796;10.956;2022-09-21T03:52:26;21.10;52.80
67899;DHT22;54699;51.796;10.956;2022-09-21T03:54:54;21.10;52.80
67899;DHT22;54699;51.796;10.956;2022-09-21T03:57:21;21.10;52.90
67899;DHT22;54699;51.796;10.956;2022-09-21T03:59:47;21.10;52.60
67899;DHT22;54699;51.796;10.956;2022-09-21T04:02:14;21.10;52.70
67899;DHT22;54699;51.796;10.956;2022-09-21T04:04:41;21.10;52.70
67899;DHT22;54699;51.796;10.956;2022-09-21T04:07:08;21.10;52.60
67899;DHT22;54699;51.796;10.956;2022-09-21T04:09:34;21.10;52.80
67899;DHT22;54699;51.796;10.956;2022-09-21T04:12:02;21.10;52.80
67899;DHT22;54699;51.796;10.956;2022-09-21T04:14:29;21.10;52.60
67899;DHT22;54699;51.796;10.956;2022-09-21T04:16:56;21.10;52.70
67899;DHT22;54699;51.796;10.956;2022-09-21T04:19:22;21.10;52.50
67899;DHT22;54699;51.796;10.956;2022-09-21T04:21:49;21.10;52.70
67899;DHT22;54699;51.796;10.956;2022-09-21T04:24:17;21.10;52.50
67899;DHT22;54699;51.796;10.956;2022-09-21T04:26:44;21.10;52.50
67899;DHT22;54699;51.796;10.956;2022-09-21T04:29:12;21.10;52.50
67899;DHT22;54699;51.796;10.956;2022-09-21T04:31:40;21.10;52.50
67899;DHT22;54699;51.796;10.956;2022-09-21T04:34:07;21.10;53.40
67899;DHT22;54699;51.796;10.956;2022-09-21T04:36:37;21.00;52.50
67899;DHT22;54699;51.796;10.956;2022-09-21T04:39:04;21.10;52.40
67899;DHT22;54699;51.796;10.956;2022-09-21T04:41:31;21.00;52.00
67899;DHT22;54699;51.796;10.956;2022-09-21T04:43:58;21.00;50.30
67899;DHT22;54699;51.796;10.956;2022-09-21T04:46:26;21.00;52.20
67899;DHT22;54699;51.796;10.956;2022-09-21T04:48:53;21.00;52.30
67899;DHT22;54699;51.796;10.956;2022-09-21T04:51:20;21.00;50.50
67899;DHT22;54699;51.796;10.956;2022-09-21T04:53:47;21.00;52.10
67899;DHT22;54699;51.796;10.956;2022-09-21T04:56:14;20.90;50.80
67899;DHT22;54699;51.796;10.956;2022-09-21T04:58:41;21.00;51.90
67899;DHT22;54699;51.796;10.956;2022-09-21T05:01:09;20.90;49.70
67899;DHT22;54699;51.796;10.956;2022-09-21T05:03:38;20.90;48.40
67899;DHT22;54699;51.796;10.956;2022-09-21T05:06:05;20.80;49.50
67899;DHT22;54699;51.796;10.956;2022-09-21T05:08:33;20.90;48.90
67899;DHT22;54699;51.796;10.956;2022-09-21T05:11:18;20.80;48.30
67899;DHT22;54699;51.796;10.956;2022-09-21T05:13:45;20.80;48.30
67899;DHT22;54699;51.796;10.956;2022-09-21T05:16:13;20.80;48.20
67899;DHT22;54699;51.796;10.956;2022-09-21T05:18:42;20.70;48.40
67899;DHT22;54699;51.796;10.956;2022-09-21T05:21:10;20.80;51.20
67899;DHT22;54699;51.796;10.956;2022-09-21T05:23:37;20.90;50.90
67899;DHT22;54699;51.796;10.956;2022-09-21T05:26:07;20.90;51.40
67899;DHT22;54699;51.796;10.956;2022-09-21T05:28:34;20.90;51.20
67899;DHT22;54699;51.796;10.956;2022-09-21T05:31:03;21.00;51.10
67899;DHT22;54699;51.796;10.956;2022-09-21T05:33:49;20.90;51.00
67899;DHT22;54699;51.796;10.956;2022-09-21T05:36:23;21.00;51.30
67899;DHT22;54699;51.796;10.956;2022-09-21T05:38:59;21.00;51.10
67899;DHT22;54699;51.796;10.956;2022-09-21T05:41:27;20.90;51.20
67899;DHT22;54699;51.796;10.956;2022-09-21T05:43:55;20.90;51.10
67899;DHT22;54699;51.796;10.956;2022-09-21T05:46:26;20.90;51.10
67899;DHT22;54699;51.796;10.956;2022-09-21T05:49:07;21.00;51.20
67899;DHT22;54699;51.796;10.956;2022-09-21T05:51:58;20.90;50.80
67899;DHT22;54699;51.796;10.956;2022-09-21T05:54:37;21.00;50.90
67899;DHT22;54699;51.796;10.956;2022-09-21T05:57:19;21.00;51.30
67899;DHT22;54699;51.796;10.956;2022-09-21T06:03:36;20.80;50.00
67899;DHT22;54699;51.796;10.956;2022-09-21T06:06:08;20.90;49.00
67899;DHT22;54699;51.796;10.956;2022-09-21T06:08:35;20.80;48.60
67899;DHT22;54699;51.796;10.956;2022-09-21T06:11:01;20.80;48.40
67899;DHT22;54699;51.796;10.956;2022-09-21T06:13:29;20.90;47.90
67899;DHT22;54699;51.796;10.956;2022-09-21T06:15:56;21.00;49.80
67899;DHT22;54699;51.796;10.956;2022-09-21T06:18:26;21.10;50.50
67899;DHT22;54699;51.796;10.956;2022-09-21T06:20:53;21.20;50.40
67899;DHT22;54699;51.796;10.956;2022-09-21T06:23:21;21.20;50.30
67899;DHT22;54699;51.796;10.956;2022-09-21T06:25:49;21.20;50.10
67899;DHT22;54699;51.796;10.956;2022-09-21T06:28:16;21.20;50.10
67899;DHT22;54699;51.796;10.956;2022-09-21T06:30:48;21.30;50.00
67899;DHT22;54699;51.796;10.956;2022-09-21T06:33:16;21.30;49.80
67899;DHT22;54699;51.796;10.956;2022-09-21T06:35:50;21.30;49.90
67899;DHT22;54699;51.796;10.956;2022-09-21T06:38:17;21.30;49.80
67899;DHT22;54699;51.796;10.956;2022-09-21T06:40:45;21.30;49.70
67899;DHT22;54699;51.796;10.956;2022-09-21T06:43:12;21.30;49.80
67899;DHT22;54699;51.796;10.956;2022-09-21T06:45:39;21.30;49.70
67899;DHT22;54699;51.796;10.956;2022-09-21T06:48:06;21.40;49.80
67899;DHT22;54699;51.796;10.956;2022-09-21T06:50:33;21.40;49.80
67899;DHT22;54699;51.796;10.956;2022-09-21T06:53:01;21.40;50.70
67899;DHT22;54699;51.796;10.956;2022-09-21T06:55:29;21.40;49.80
67899;DHT22;54699;51.796;10.956;2022-09-21T06:58:02;21.30;49.40
67899;DHT22;54699;51.796;10.956;2022-09-21T07:00:29;21.30;49.20
67899;DHT22;54699;51.796;10.956;2022-09-21T07:02:57;21.40;50.00
67899;DHT22;54699;51.796;10.956;2022-09-21T07:05:25;21.30;49.90
67899;DHT22;54699;51.796;10.956;2022-09-21T07:07:55;21.30;50.10
67899;DHT22;54699;51.796;10.956;2022-09-21T07:10:23;21.40;49.90
67899;DHT22;54699;51.796;10.956;2022-09-21T07:12:50;21.40;49.90
67899;DHT22;54699;51.796;10.956;2022-09-21T07:15:19;21.40;49.80
67899;DHT22;54699;51.796;10.956;2022-09-21T07:17:46;21.40;49.80
67899;DHT22;54699;51.796;10.956;2022-09-21T07:20:13;21.40;49.80
67899;DHT22;54699;51.796;10.956;2022-09-21T07:22:40;21.40;49.70
67899;DHT22;54699;51.796;10.956;2022-09-21T07:25:07;21.40;49.60
67899;DHT22;54699;51.796;10.956;2022-09-21T07:27:35;21.50;49.70
67899;DHT22;54699;51.796;10.956;2022-09-21T07:30:02;21.40;49.60
67899;DHT22;54699;51.796;10.956;2022-09-21T07:32:32;21.40;49.40
67899;DHT22;54699;51.796;10.956;2022-09-21T07:34:59;21.50;49.60
67899;DHT22;54699;51.796;10.956;2022-09-21T07:37:29;21.50;49.80
67899;DHT22;54699;51.796;10.956;2022-09-21T07:43:07;21.40;49.50
67899;DHT22;54699;51.796;10.956;2022-09-21T07:45:35;21.40;47.60
67899;DHT22;54699;51.796;10.956;2022-09-21T07:51:39;21.50;48.80
67899;DHT22;54699;51.796;10.956;2022-09-21T07:54:08;21.50;49.30
67899;DHT22;54699;51.796;10.956;2022-09-21T07:56:38;21.60;49.50
67899;DHT22;54699;51.796;10.956;2022-09-21T07:59:07;21.70;49.60
67899;DHT22;54699;51.796;10.956;2022-09-21T08:01:36;21.70;50.00
67899;DHT22;54699;51.796;10.956;2022-09-21T08:04:07;21.70;48.70
67899;DHT22;54699;51.796;10.956;2022-09-21T08:06:46;21.60;47.60
67899;DHT22;54699;51.796;10.956;2022-09-21T08:09:33;21.60;48.50
67899;DHT22;54699;51.796;10.956;2022-09-21T08:12:00;21.60;48.50
67899;DHT22;54699;51.796;10.956;2022-09-21T08:14:28;21.60;49.70
67899;DHT22;54699;51.796;10.956;2022-09-21T08:16:55;21.60;49.80
67899;DHT22;54699;51.796;10.956;2022-09-21T08:19:24;21.50;48.80
67899;DHT22;54699;51.796;10.956;2022-09-21T08:21:53;21.50;49.20
67899;DHT22;54699;51.796;10.956;2022-09-21T08:24:20;21.60;49.60
67899;DHT22;54699;51.796;10.956;2022-09-21T08:26:47;21.60;49.80
67899;DHT22;54699;51.796;10.956;2022-09-21T08:29:16;21.60;49.80
67899;DHT22;54699;51.796;10.956;2022-09-21T08:31:43;21.60;50.10
67899;DHT22;54699;51.796;10.956;2022-09-21T08:34:10;21.70;50.20
67899;DHT22;54699;51.796;10.956;2022-09-21T08:36:38;21.70;50.50
67899;DHT22;54699;51.796;10.956;2022-09-21T08:39:06;21.50;47.90
67899;DHT22;54699;51.796;10.956;2022-09-21T08:41:46;21.60;47.10
67899;DHT22;54699;51.796;10.956;2022-09-21T08:44:27;21.60;48.30
67899;DHT22;54699;51.796;10.956;2022-09-21T08:47:09;21.60;46.60
67899;DHT22;54699;51.796;10.956;2022-09-21T08:49:43;21.60;47.00
67899;DHT22;54699;51.796;10.956;2022-09-21T08:52:15;21.60;46.90
67899;DHT22;54699;51.796;10.956;2022-09-21T08:54:48;21.60;46.90
67899;DHT22;54699;51.796;10.956;2022-09-21T08:57:33;21.60;46.70
67899;DHT22;54699;51.796;10.956;2022-09-21T09:00:12;21.70;47.60
67899;DHT22;54699;51.796;10.956;2022-09-21T09:02:49;21.70;49.00
67899;DHT22;54699;51.796;10.956;2022-09-21T09:05:44;21.70;49.20
67899;DHT22;54699;51.796;10.956;2022-09-21T09:11:18;21.80;47.20
67899;DHT22;54699;51.796;10.956;2022-09-21T09:14:05;21.80;48.00
67899;DHT22;54699;51.796;10.956;2022-09-21T09:16:42;21.80;46.80
67899;DHT22;54699;51.796;10.956;2022-09-21T09:19:19;21.80;46.70
67899;DHT22;54699;51.796;10.956;2022-09-21T09:21:53;21.80;46.40
67899;DHT22;54699;51.796;10.956;2022-09-21T09:24:24;21.90;46.20
67899;DHT22;54699;51.796;10.956;2022-09-21T09:27:03;21.90;45.60
67899;DHT22;54699;51.796;10.956;2022-09-21T09:29:41;21.90;45.50
67899;DHT22;54699;51.796;10.956;2022-09-21T09:32:15;21.90;45.60
67899;DHT22;54699;51.796;10.956;2022-09-21T09:34:48;22.00;44.60
67899;DHT22;54699;51.796;10.956;2022-09-21T09:40:55;22.10;44.40
67899;DHT22;54699;51.796;10.956;2022-09-21T09:43:43;22.20;45.10
67899;DHT22;54699;51.796;10.956;2022-09-21T09:46:25;22.30;45.90
67899;DHT22;54699;51.796;10.956;2022-09-21T09:49:03;22.40;44.90
67899;DHT22;54699;51.796;10.956;2022-09-21T09:51:40;22.50;44.90
67899;DHT22;54699;51.796;10.956;2022-09-21T09:54:11;22.60;46.40
67899;DHT22;54699;51.796;10.956;2022-09-21T09:56:41;22.70;46.80
67899;DHT22;54699;51.796;10.956;2022-09-21T09:59:11;22.70;43.90
67899;DHT22;54699;51.796;10.956;2022-09-21T10:01:58;22.80;45.70
67899;DHT22;54699;51.796;10.956;2022-09-21T10:04:26;22.80;44.60
67899;DHT22;54699;51.796;10.956;2022-09-21T10:06:53;22.80;44.30
67899;DHT22;54699;51.796;10.956;2022-09-21T10:09:25;22.80;45.50
67899;DHT22;54699;51.796;10.956;2022-09-21T10:11:54;22.70;45.10
67899;DHT22;54699;51.796;10.956;2022-09-21T10:14:26;22.70;44.60
67899;DHT22;54699;51.796;10.956;2022-09-21T10:16:56;22.70;45.20
67899;DHT22;54699;51.796;10.956;2022-09-21T10:19:30;22.70;44.20
67899;DHT22;54699;51.796;10.956;2022-09-21T10:21:58;22.70;43.90
67899;DHT22;54699;51.796;10.956;2022-09-21T10:24:27;22.70;44.10
67899;DHT22;54699;51.796;10.956;2022-09-21T10:27:01;22.80;45.10
67899;DHT22;54699;51.796;10.956;2022-09-21T10:29:37;22.80;44.20
67899;DHT22;54699;51.796;10.956;2022-09-21T10:32:17;22.70;42.90
67899;DHT22;54699;51.796;10.956;2022-09-21T10:34:59;22.50;41.40
67899;DHT22;54699;51.796;10.956;2022-09-21T10:37:40;22.50;42.70
67899;DHT22;54699;51.796;10.956;2022-09-21T10:40:21;22.50;41.80
67899;DHT22;54699;51.796;10.956;2022-09-21T10:42:50;22.60;43.10
67899;DHT22;54699;51.796;10.956;2022-09-21T10:45:21;22.50;43.70
67899;DHT22;54699;51.796;10.956;2022-09-21T10:47:51;22.60;43.50
67899;DHT22;54699;51.796;10.956;2022-09-21T10:50:22;22.60;43.40
67899;DHT22;54699;51.796;10.956;2022-09-21T10:52:53;22.70;43.70
67899;DHT22;54699;51.796;10.956;2022-09-21T10:55:24;22.80;45.00
67899;DHT22;54699;51.796;10.956;2022-09-21T10:57:53;22.70;44.90
67899;DHT22;54699;51.796;10.956;2022-09-21T11:00:33;22.60;44.10
67899;DHT22;54699;51.796;10.956;2022-09-21T11:05:59;22.50;43.90
67899;DHT22;54699;51.796;10.956;2022-09-21T11:08:31;22.50;44.00
67899;DHT22;54699;51.796;10.956;2022-09-21T11:11:05;22.60;43.70
67899;DHT22;54699;51.796;10.956;2022-09-21T11:13:44;22.60;43.10
67899;DHT22;54699;51.796;10.956;2022-09-21T11:16:19;22.60;43.70
67899;DHT22;54699;51.796;10.956;2022-09-21T11:18:54;22.70;44.00
67899;DHT22;54699;51.796;10.956;2022-09-21T11:21:29;22.70;43.80
67899;DHT22;54699;51.796;10.956;2022-09-21T11:24:09;22.70;43.80
67899;DHT22;54699;51.796;10.956;2022-09-21T11:26:48;22.70;42.80
67899;DHT22;54699;51.796;10.956;2022-09-21T11:29:20;22.70;43.60
67899;DHT22;54699;51.796;10.956;2022-09-21T11:31:54;22.80;43.10
67899;DHT22;54699;51.796;10.956;2022-09-21T11:37:36;22.90;43.20
67899;DHT22;54699;51.796;10.956;2022-09-21T11:40:16;22.90;44.00
67899;DHT22;54699;51.796;10.956;2022-09-21T11:42:59;23.00;44.10
67899;DHT22;54699;51.796;10.956;2022-09-21T11:45:45;23.00;43.10
67899;DHT22;54699;51.796;10.956;2022-09-21T11:48:28;23.00;42.50
67899;DHT22;54699;51.796;10.956;2022-09-21T11:51:06;23.00;42.40
67899;DHT22;54699;51.796;10.956;2022-09-21T11:53:48;23.00;42.70
67899;DHT22;54699;51.796;10.956;2022-09-21T11:56:30;23.10;43.10
67899;DHT22;54699;51.796;10.956;2022-09-21T11:59:14;23.00;42.90
67899;DHT22;54699;51.796;10.956;2022-09-21T12:02:28;23.00;42.30
67899;DHT22;54699;51.796;10.956;2022-09-21T12:05:12;23.00;42.30
67899;DHT22;54699;51.796;10.956;2022-09-21T12:07:51;23.10;43.90
67899;DHT22;54699;51.796;10.956;2022-09-21T12:10:35;23.10;42.40
67899;DHT22;54699;51.796;10.956;2022-09-21T12:13:06;23.20;42.00
67899;DHT22;54699;51.796;10.956;2022-09-21T12:15:41;23.20;44.30
67899;DHT22;54699;51.796;10.956;2022-09-21T12:18:15;23.10;42.10
67899;DHT22;54699;51.796;10.956;2022-09-21T12:20:52;23.20;42.30
67899;DHT22;54699;51.796;10.956;2022-09-21T12:23:27;23.20;42.50
67899;DHT22;54699;51.796;10.956;2022-09-21T12:26:02;23.20;42.40
67899;DHT22;54699;51.796;10.956;2022-09-21T12:28:33;23.20;41.70
67899;DHT22;54699;51.796;10.956;2022-09-21T12:31:06;23.20;41.90
67899;DHT22;54699;51.796;10.956;2022-09-21T12:33:38;23.30;41.60
67899;DHT22;54699;51.796;10.956;2022-09-21T12:36:11;23.30;42.80
67899;DHT22;54699;51.796;10.956;2022-09-21T12:38:42;23.30;44.10
67899;DHT22;54699;51.796;10.956;2022-09-21T12:41:15;23.30;42.50
67899;DHT22;54699;51.796;10.956;2022-09-21T12:43:46;23.30;42.60
67899;DHT22;54699;51.796;10.956;2022-09-21T12:46:17;23.30;43.70
67899;DHT22;54699;51.796;10.956;2022-09-21T12:48:47;23.30;43.10
67899;DHT22;54699;51.796;10.956;2022-09-21T12:51:15;23.30;43.80
67899;DHT22;54699;51.796;10.956;2022-09-21T12:53:48;23.40;42.90
67899;DHT22;54699;51.796;10.956;2022-09-21T12:56:19;23.40;42.90
67899;DHT22;54699;51.796;10.956;2022-09-21T12:59:02;23.40;43.40
67899;DHT22;54699;51.796;10.956;2022-09-21T13:01:36;23.40;43.80
67899;DHT22;54699;51.796;10.956;2022-09-21T13:04:11;23.50;43.80
67899;DHT22;54699;51.796;10.956;2022-09-21T13:09:49;23.50;43.10
67899;DHT22;54699;51.796;10.956;2022-09-21T13:12:18;23.50;44.00
67899;DHT22;54699;51.796;10.956;2022-09-21T13:14:49;23.50;44.00
67899;DHT22;54699;51.796;10.956;2022-09-21T13:17:26;23.60;43.90
67899;DHT22;54699;51.796;10.956;2022-09-21T13:19:55;23.60;44.10
67899;DHT22;54699;51.796;10.956;2022-09-21T13:22:28;23.60;44.30
67899;DHT22;54699;51.796;10.956;2022-09-21T13:24:58;23.60;44.40
67899;DHT22;54699;51.796;10.956;2022-09-21T13:30:29;23.70;44.50
67899;DHT22;54699;51.796;10.956;2022-09-21T13:32:59;23.70;44.40
67899;DHT22;54699;51.796;10.956;2022-09-21T13:38:29;23.70;44.60
67899;DHT22;54699;51.796;10.956;2022-09-21T13:40:59;23.70;42.90
67899;DHT22;54699;51.796;10.956;2022-09-21T13:49:29;23.80;44.80
67899;DHT22;54699;51.796;10.956;2022-09-21T13:52:00;23.80;43.20
67899;DHT22;54699;51.796;10.956;2022-09-21T13:54:32;23.80;44.70
67899;DHT22;54699;51.796;10.956;2022-09-21T13:57:03;23.80;44.40
67899;DHT22;54699;51.796;10.956;2022-09-21T13:59:39;23.90;44.60
67899;DHT22;54699;51.796;10.956;2022-09-21T14:02:17;23.90;44.00
67899;DHT22;54699;51.796;10.956;2022-09-21T14:04:53;23.90;42.90
67899;DHT22;54699;51.796;10.956;2022-09-21T14:07:20;23.90;44.40
67899;DHT22;54699;51.796;10.956;2022-09-21T14:09:56;23.90;44.10
67899;DHT22;54699;51.796;10.956;2022-09-21T14:12:25;23.90;44.20
67899;DHT22;54699;51.796;10.956;2022-09-21T14:15:08;23.90;44.20
67899;DHT22;54699;51.796;10.956;2022-09-21T14:18:15;24.00;44.40
67899;DHT22;54699;51.796;10.956;2022-09-21T14:26:52;24.00;43.60
67899;DHT22;54699;51.796;10.956;2022-09-21T14:29:24;24.10;44.70
67899;DHT22;54699;51.796;10.956;2022-09-21T14:31:55;24.10;44.80
67899;DHT22;54699;51.796;10.956;2022-09-21T14:34:29;24.10;45.00
67899;DHT22;54699;51.796;10.956;2022-09-21T14:37:01;24.10;45.00
67899;DHT22;54699;51.796;10.956;2022-09-21T14:39:32;24.10;43.30
67899;DHT22;54699;51.796;10.956;2022-09-21T14:42:06;24.20;43.80
67899;DHT22;54699;51.796;10.956;2022-09-21T14:44:37;24.10;45.00
67899;DHT22;54699;51.796;10.956;2022-09-21T14:47:13;24.20;44.90
67899;DHT22;54699;51.796;10.956;2022-09-21T14:49:53;24.20;44.00
67899;DHT22;54699;51.796;10.956;2022-09-21T14:52:34;24.20;44.50
67899;DHT22;54699;51.796;10.956;2022-09-21T14:55:14;24.20;45.30
67899;DHT22;54699;51.796;10.956;2022-09-21T14:57:48;24.20;45.60
67899;DHT22;54699;51.796;10.956;2022-09-21T15:00:34;24.20;45.60
67899;DHT22;54699;51.796;10.956;2022-09-21T15:03:08;24.20;45.50
67899;DHT22;54699;51.796;10.956;2022-09-21T15:05:54;24.20;45.50
67899;DHT22;54699;51.796;10.956;2022-09-21T15:08:29;24.20;45.80
67899;DHT22;54699;51.796;10.956;2022-09-21T15:11:30;24.10;46.90
67899;DHT22;54699;51.796;10.956;2022-09-21T15:14:09;24.10;47.20
67899;DHT22;54699;51.796;10.956;2022-09-21T15:16:43;24.10;47.30
67899;DHT22;54699;51.796;10.956;2022-09-21T15:19:14;24.00;47.30
67899;DHT22;54699;51.796;10.956;2022-09-21T15:21:48;24.00;47.90
67899;DHT22;54699;51.796;10.956;2022-09-21T15:24:18;24.10;48.10
67899;DHT22;54699;51.796;10.956;2022-09-21T15:26:47;24.00;48.20
67899;DHT22;54699;51.796;10.956;2022-09-21T15:29:24;24.00;48.40
67899;DHT22;54699;51.796;10.956;2022-09-21T15:31:53;24.00;48.80
67899;DHT22;54699;51.796;10.956;2022-09-21T15:34:20;24.00;48.70
67899;DHT22;54699;51.796;10.956;2022-09-21T15:36:47;23.90;48.20
67899;DHT22;54699;51.796;10.956;2022-09-21T15:39:20;23.90;47.90
67899;DHT22;54699;51.796;10.956;2022-09-21T15:41:52;23.90;47.80
67899;DHT22;54699;51.796;10.956;2022-09-21T15:44:35;23.90;47.60
67899;DHT22;54699;51.796;10.956;2022-09-21T15:47:05;23.80;47.50
67899;DHT22;54699;51.796;10.956;2022-09-21T15:49:34;23.80;47.70
67899;DHT22;54699;51.796;10.956;2022-09-21T15:52:02;23.80;47.40
67899;DHT22;54699;51.796;10.956;2022-09-21T15:54:39;23.80;47.60
67899;DHT22;54699;51.796;10.956;2022-09-21T15:57:21;23.80;48.10
67899;DHT22;54699;51.796;10.956;2022-09-21T15:59:51;23.70;47.90
67899;DHT22;54699;51.796;10.956;2022-09-21T16:02:20;23.70;46.90
67899;DHT22;54699;51.796;10.956;2022-09-21T16:04:48;23.70;47.30
67899;DHT22;54699;51.796;10.956;2022-09-21T16:07:24;23.60;48.50
67899;DHT22;54699;51.796;10.956;2022-09-21T16:09:52;23.60;47.40
67899;DHT22;54699;51.796;10.956;2022-09-21T16:12:34;23.70;48.00
67899;DHT22;54699;51.796;10.956;2022-09-21T16:15:16;23.70;48.30
67899;DHT22;54699;51.796;10.956;2022-09-21T16:17:54;23.60;48.10
67899;DHT22;54699;51.796;10.956;2022-09-21T16:23:11;23.60;48.30
67899;DHT22;54699;51.796;10.956;2022-09-21T16:25:40;23.60;48.40
67899;DHT22;54699;51.796;10.956;2022-09-21T16:28:28;23.60;48.30
67899;DHT22;54699;51.796;10.956;2022-09-21T16:31:01;23.60;48.20
67899;DHT22;54699;51.796;10.956;2022-09-21T16:33:57;23.60;48.10
67899;DHT22;54699;51.796;10.956;2022-09-21T16:36:44;23.60;47.90